sensor_id;sensor_type;location;lat;lon;timestamp;P1;durP1;ratioP1;P2;durP2;ratioP2
2542;SDS011;1116;51.502;7.414;2023-06-22T00:01:41;9.47;;;6.53;;
2542;SDS011;1116;51.502;7.414;2023-06-22T00:04:12;7.13;;;6.43;;
2542;SDS011;1116;51.502;7.414;2023-06-22T00:06:46;7.13;;;6.37;;
2542;SDS011;1116;51.502;7.414;2023-06-22T00:09:17;7.90;;;7.20;;
2542;SDS011;1116;51.502;7.414;2023-06-22T00:11:48;7.60;;;6.90;;
2542;SDS011;1116;51.502;7.414;2023-06-22T00:14:19;7.97;;;6.00;;
2542;SDS011;1116;51.502;7.414;2023-06-22T00:16:50;8.13;;;7.20;;
2542;SDS011;1116;51.502;7.414;2023-06-22T00:19:22;8.50;;;7.70;;
2542;SDS011;1116;51.502;7.414;2023-06-22T00:21:56;8.60;;;7.80;;
2542;SDS011;1116;51.502;7.414;2023-06-22T00:24:27;7.40;;;6.40;;
2542;SDS011;1116;51.502;7.414;2023-06-22T00:26:58;8.17;;;7.47;;
2542;SDS011;1116;51.502;7.414;2023-06-22T00:29:30;7.60;;;6.90;;
2542;SDS011;1116;51.502;7.414;2023-06-22T00:32:01;7.07;;;6.47;;
2542;SDS011;1116;51.502;7.414;2023-06-22T00:34:32;7.40;;;6.60;;
2542;SDS011;1116;51.502;7.414;2023-06-22T00:37:06;7.80;;;7.10;;
2542;SDS011;1116;51.502;7.414;2023-06-22T00:39:38;8.83;;;8.10;;
2542;SDS011;1116;51.502;7.414;2023-06-22T00:42:10;9.07;;;8.27;;
2542;SDS011;1116;51.502;7.414;2023-06-22T00:44:40;8.33;;;7.47;;
2542;SDS011;1116;51.502;7.414;2023-06-22T00:47:12;7.17;;;6.57;;
2542;SDS011;1116;51.502;7.414;2023-06-22T00:49:44;9.03;;;7.17;;
2542;SDS011;1116;51.502;7.414;2023-06-22T00:52:21;9.73;;;8.83;;
2542;SDS011;1116;51.502;7.414;2023-06-22T00:54:56;8.50;;;7.73;;
2542;SDS011;1116;51.502;7.414;2023-06-22T00:57:29;8.27;;;7.47;;
2542;SDS011;1116;51.502;7.414;2023-06-22T01:00:05;8.67;;;7.87;;
2542;SDS011;1116;51.502;7.414;2023-06-22T01:02:50;7.97;;;7.00;;
2542;SDS011;1116;51.502;7.414;2023-06-22T01:05:23;9.60;;;7.97;;
2542;SDS011;1116;51.502;7.414;2023-06-22T01:08:08;8.30;;;7.50;;
2542;SDS011;1116;51.502;7.414;2023-06-22T01:10:51;7.80;;;7.20;;
2542;SDS011;1116;51.502;7.414;2023-06-22T01:13:29;8.30;;;7.50;;
2542;SDS011;1116;51.502;7.414;2023-06-22T01:16:06;8.90;;;8.20;;
2542;SDS011;1116;51.502;7.414;2023-06-22T01:18:41;9.37;;;8.57;;
2542;SDS011;1116;51.502;7.414;2023-06-22T01:21:14;12.03;;;9.40;;
2542;SDS011;1116;51.502;7.414;2023-06-22T01:23:56;9.30;;;8.47;;
2542;SDS011;1116;51.502;7.414;2023-06-22T01:26:37;10.20;;;8.53;;
2542;SDS011;1116;51.502;7.414;2023-06-22T01:29:13;9.10;;;8.27;;
2542;SDS011;1116;51.502;7.414;2023-06-22T01:31:46;10.70;;;9.80;;
2542;SDS011;1116;51.502;7.414;2023-06-22T01:34:19;9.43;;;8.53;;
2542;SDS011;1116;51.502;7.414;2023-06-22T01:36:52;9.00;;;8.23;;
2542;SDS011;1116;51.502;7.414;2023-06-22T01:39:23;11.40;;;10.20;;
2542;SDS011;1116;51.502;7.414;2023-06-22T01:41:55;12.00;;;10.90;;
2542;SDS011;1116;51.502;7.414;2023-06-22T01:44:30;11.47;;;10.37;;
2542;SDS011;1116;51.502;7.414;2023-06-22T01:47:01;12.03;;;10.97;;
2542;SDS011;1116;51.502;7.414;2023-06-22T01:49:33;10.60;;;9.70;;
2542;SDS011;1116;51.502;7.414;2023-06-22T01:52:04;11.43;;;10.10;;
2542;SDS011;1116;51.502;7.414;2023-06-22T01:54:36;9.27;;;8.47;;
2542;SDS011;1116;51.502;7.414;2023-06-22T01:57:08;10.23;;;9.33;;
2542;SDS011;1116;51.502;7.414;2023-06-22T01:59:43;11.53;;;10.40;;
2542;SDS011;1116;51.502;7.414;2023-06-22T02:02:21;12.00;;;10.90;;
2542;SDS011;1116;51.502;7.414;2023-06-22T02:04:58;11.17;;;10.07;;
2542;SDS011;1116;51.502;7.414;2023-06-22T02:07:34;11.87;;;10.77;;
2542;SDS011;1116;51.502;7.414;2023-06-22T02:10:11;10.87;;;9.87;;
2542;SDS011;1116;51.502;7.414;2023-06-22T02:12:46;11.30;;;10.20;;
2542;SDS011;1116;51.502;7.414;2023-06-22T02:15:21;10.43;;;9.63;;
2542;SDS011;1116;51.502;7.414;2023-06-22T02:17:52;11.03;;;9.80;;
2542;SDS011;1116;51.502;7.414;2023-06-22T02:20:24;11.80;;;10.07;;
2542;SDS011;1116;51.502;7.414;2023-06-22T02:22:55;11.07;;;10.23;;
2542;SDS011;1116;51.502;7.414;2023-06-22T02:25:26;12.00;;;11.00;;
2542;SDS011;1116;51.502;7.414;2023-06-22T02:27:57;12.27;;;11.03;;
2542;SDS011;1116;51.502;7.414;2023-06-22T02:30:31;18.00;;;11.57;;
2542;SDS011;1116;51.502;7.414;2023-06-22T02:33:02;11.23;;;10.00;;
2542;SDS011;1116;51.502;7.414;2023-06-22T02:35:33;11.20;;;10.30;;
2542;SDS011;1116;51.502;7.414;2023-06-22T02:38:07;11.73;;;10.63;;
2542;SDS011;1116;51.502;7.414;2023-06-22T02:40:38;10.67;;;9.77;;
2542;SDS011;1116;51.502;7.414;2023-06-22T02:43:09;12.27;;;11.07;;
2542;SDS011;1116;51.502;7.414;2023-06-22T02:45:43;11.07;;;10.07;;
2542;SDS011;1116;51.502;7.414;2023-06-22T02:48:14;11.40;;;10.40;;
2542;SDS011;1116;51.502;7.414;2023-06-22T02:50:45;11.57;;;10.53;;
2542;SDS011;1116;51.502;7.414;2023-06-22T02:53:16;11.10;;;10.10;;
2542;SDS011;1116;51.502;7.414;2023-06-22T02:55:48;12.03;;;10.93;;
2542;SDS011;1116;51.502;7.414;2023-06-22T02:58:19;11.60;;;10.60;;
2542;SDS011;1116;51.502;7.414;2023-06-22T03:00:54;12.50;;;11.30;;
2542;SDS011;1116;51.502;7.414;2023-06-22T03:03:25;12.80;;;10.93;;
2542;SDS011;1116;51.502;7.414;2023-06-22T03:05:56;11.70;;;10.70;;
2542;SDS011;1116;51.502;7.414;2023-06-22T03:08:28;11.80;;;10.80;;
2542;SDS011;1116;51.502;7.414;2023-06-22T03:10:59;12.87;;;11.60;;
2542;SDS011;1116;51.502;7.414;2023-06-22T03:13:30;12.73;;;11.53;;
2542;SDS011;1116;51.502;7.414;2023-06-22T03:16:04;10.40;;;9.50;;
2542;SDS011;1116;51.502;7.414;2023-06-22T03:18:35;11.93;;;10.83;;
2542;SDS011;1116;51.502;7.414;2023-06-22T03:21:06;12.50;;;11.50;;
2542;SDS011;1116;51.502;7.414;2023-06-22T03:23:37;13.00;;;10.57;;
2542;SDS011;1116;51.502;7.414;2023-06-22T03:26:08;13.20;;;12.03;;
2542;SDS011;1116;51.502;7.414;2023-06-22T03:28:40;12.60;;;11.40;;
2542;SDS011;1116;51.502;7.414;2023-06-22T03:31:13;11.77;;;10.53;;
2542;SDS011;1116;51.502;7.414;2023-06-22T03:33:49;14.10;;;12.80;;
2542;SDS011;1116;51.502;7.414;2023-06-22T03:36:21;12.47;;;11.17;;
2542;SDS011;1116;51.502;7.414;2023-06-22T03:38:52;13.57;;;12.37;;
2542;SDS011;1116;51.502;7.414;2023-06-22T03:41:23;12.93;;;11.73;;
2542;SDS011;1116;51.502;7.414;2023-06-22T03:43:54;12.40;;;11.20;;
2542;SDS011;1116;51.502;7.414;2023-06-22T03:46:28;13.90;;;12.70;;
2542;SDS011;1116;51.502;7.414;2023-06-22T03:48:59;13.23;;;11.80;;
2542;SDS011;1116;51.502;7.414;2023-06-22T03:51:32;14.40;;;12.97;;
2542;SDS011;1116;51.502;7.414;2023-06-22T03:54:03;13.90;;;12.60;;
2542;SDS011;1116;51.502;7.414;2023-06-22T03:56:34;14.60;;;13.13;;
2542;SDS011;1116;51.502;7.414;2023-06-22T03:59:05;13.83;;;12.33;;
2542;SDS011;1116;51.502;7.414;2023-06-22T04:01:39;16.37;;;14.73;;
2542;SDS011;1116;51.502;7.414;2023-06-22T04:04:11;15.23;;;13.83;;
2542;SDS011;1116;51.502;7.414;2023-06-22T04:06:42;15.73;;;14.37;;
2542;SDS011;1116;51.502;7.414;2023-06-22T04:09:13;15.13;;;13.73;;
2542;SDS011;1116;51.502;7.414;2023-06-22T04:11:44;16.37;;;14.57;;
2542;SDS011;1116;51.502;7.414;2023-06-22T04:14:15;18.43;;;13.50;;
2542;SDS011;1116;51.502;7.414;2023-06-22T04:16:49;16.17;;;14.60;;
2542;SDS011;1116;51.502;7.414;2023-06-22T04:19:20;15.87;;;14.47;;
2542;SDS011;1116;51.502;7.414;2023-06-22T04:21:51;16.50;;;14.80;;
2542;SDS011;1116;51.502;7.414;2023-06-22T04:24:22;14.63;;;13.33;;
2542;SDS011;1116;51.502;7.414;2023-06-22T04:26:53;17.00;;;13.47;;
2542;SDS011;1116;51.502;7.414;2023-06-22T04:29:23;16.23;;;14.60;;
2542;SDS011;1116;51.502;7.414;2023-06-22T04:31:59;15.47;;;14.17;;
2542;SDS011;1116;51.502;7.414;2023-06-22T04:34:30;14.57;;;13.37;;
2542;SDS011;1116;51.502;7.414;2023-06-22T04:37:01;15.20;;;13.90;;
2542;SDS011;1116;51.502;7.414;2023-06-22T04:39:33;15.00;;;13.70;;
2542;SDS011;1116;51.502;7.414;2023-06-22T04:42:04;16.27;;;14.87;;
2542;SDS011;1116;51.502;7.414;2023-06-22T04:44:36;15.60;;;14.13;;
2542;SDS011;1116;51.502;7.414;2023-06-22T04:47:10;14.93;;;13.63;;
2542;SDS011;1116;51.502;7.414;2023-06-22T04:49:41;15.20;;;13.70;;
2542;SDS011;1116;51.502;7.414;2023-06-22T04:52:12;14.77;;;13.07;;
2542;SDS011;1116;51.502;7.414;2023-06-22T04:54:47;15.00;;;13.70;;
2542;SDS011;1116;51.502;7.414;2023-06-22T04:57:23;14.87;;;13.40;;
2542;SDS011;1116;51.502;7.414;2023-06-22T05:00:00;15.17;;;13.80;;
2542;SDS011;1116;51.502;7.414;2023-06-22T05:02:42;13.87;;;12.60;;
2542;SDS011;1116;51.502;7.414;2023-06-22T05:05:24;15.00;;;13.70;;
2542;SDS011;1116;51.502;7.414;2023-06-22T05:08:06;14.70;;;13.40;;
2542;SDS011;1116;51.502;7.414;2023-06-22T05:10:43;14.33;;;12.90;;
2542;SDS011;1116;51.502;7.414;2023-06-22T05:13:31;15.07;;;13.67;;
2542;SDS011;1116;51.502;7.414;2023-06-22T05:16:03;14.77;;;13.47;;
2542;SDS011;1116;51.502;7.414;2023-06-22T05:18:37;13.77;;;12.40;;
2542;SDS011;1116;51.502;7.414;2023-06-22T05:21:09;15.23;;;13.80;;
2542;SDS011;1116;51.502;7.414;2023-06-22T05:23:40;15.13;;;13.73;;
2542;SDS011;1116;51.502;7.414;2023-06-22T05:26:11;13.73;;;12.37;;
2542;SDS011;1116;51.502;7.414;2023-06-22T05:28:42;13.73;;;12.47;;
2542;SDS011;1116;51.502;7.414;2023-06-22T05:31:14;14.50;;;13.20;;
2542;SDS011;1116;51.502;7.414;2023-06-22T05:33:51;13.07;;;11.87;;
2542;SDS011;1116;51.502;7.414;2023-06-22T05:36:23;14.10;;;12.90;;
2542;SDS011;1116;51.502;7.414;2023-06-22T05:38:56;13.50;;;12.20;;
2542;SDS011;1116;51.502;7.414;2023-06-22T05:41:27;14.23;;;13.03;;
2542;SDS011;1116;51.502;7.414;2023-06-22T05:43:58;14.67;;;13.47;;
2542;SDS011;1116;51.502;7.414;2023-06-22T05:46:29;14.73;;;13.33;;
2542;SDS011;1116;51.502;7.414;2023-06-22T05:49:03;13.77;;;12.50;;
2542;SDS011;1116;51.502;7.414;2023-06-22T05:51:34;13.57;;;12.27;;
2542;SDS011;1116;51.502;7.414;2023-06-22T05:54:05;12.20;;;11.30;;
2542;SDS011;1116;51.502;7.414;2023-06-22T05:56:36;13.13;;;11.83;;
2542;SDS011;1116;51.502;7.414;2023-06-22T05:59:08;16.87;;;12.80;;
2542;SDS011;1116;51.502;7.414;2023-06-22T06:01:39;13.60;;;12.20;;
2542;SDS011;1116;51.502;7.414;2023-06-22T06:04:13;13.70;;;12.47;;
2542;SDS011;1116;51.502;7.414;2023-06-22T06:06:44;12.90;;;11.80;;
2542;SDS011;1116;51.502;7.414;2023-06-22T06:09:18;13.63;;;11.90;;
2542;SDS011;1116;51.502;7.414;2023-06-22T06:11:49;13.40;;;12.10;;
2542;SDS011;1116;51.502;7.414;2023-06-22T06:14:20;12.47;;;11.47;;
2542;SDS011;1116;51.502;7.414;2023-06-22T06:16:51;11.53;;;10.53;;
2542;SDS011;1116;51.502;7.414;2023-06-22T06:19:25;13.00;;;11.80;;
2542;SDS011;1116;51.502;7.414;2023-06-22T06:21:56;13.30;;;12.17;;
2542;SDS011;1116;51.502;7.414;2023-06-22T06:24:27;14.80;;;13.50;;
2542;SDS011;1116;51.502;7.414;2023-06-22T06:26:58;13.50;;;12.23;;
2542;SDS011;1116;51.502;7.414;2023-06-22T06:29:32;13.50;;;12.30;;
2542;SDS011;1116;51.502;7.414;2023-06-22T06:32:03;14.33;;;12.93;;
2542;SDS011;1116;51.502;7.414;2023-06-22T06:34:37;14.40;;;13.03;;
2542;SDS011;1116;51.502;7.414;2023-06-22T06:37:08;12.90;;;11.70;;
2542;SDS011;1116;51.502;7.414;2023-06-22T06:39:39;15.17;;;13.10;;
2542;SDS011;1116;51.502;7.414;2023-06-22T06:42:11;13.60;;;12.20;;
2542;SDS011;1116;51.502;7.414;2023-06-22T06:44:42;12.83;;;11.63;;
2542;SDS011;1116;51.502;7.414;2023-06-22T06:47:13;14.10;;;12.70;;
2542;SDS011;1116;51.502;7.414;2023-06-22T06:49:47;13.73;;;12.43;;
2542;SDS011;1116;51.502;7.414;2023-06-22T06:52:18;14.30;;;13.10;;
2542;SDS011;1116;51.502;7.414;2023-06-22T06:54:49;14.17;;;12.77;;
2542;SDS011;1116;51.502;7.414;2023-06-22T06:57:21;14.37;;;13.00;;
2542;SDS011;1116;51.502;7.414;2023-06-22T06:59:56;15.10;;;13.80;;
2542;SDS011;1116;51.502;7.414;2023-06-22T07:02:27;15.90;;;14.30;;
2542;SDS011;1116;51.502;7.414;2023-06-22T07:05:01;16.57;;;14.90;;
2542;SDS011;1116;51.502;7.414;2023-06-22T07:07:34;15.77;;;14.30;;
2542;SDS011;1116;51.502;7.414;2023-06-22T07:10:06;17.27;;;15.57;;
2542;SDS011;1116;51.502;7.414;2023-06-22T07:12:37;15.10;;;13.63;;
2542;SDS011;1116;51.502;7.414;2023-06-22T07:15:09;16.97;;;15.37;;
2542;SDS011;1116;51.502;7.414;2023-06-22T07:17:41;16.20;;;14.80;;
2542;SDS011;1116;51.502;7.414;2023-06-22T07:20:15;16.50;;;14.80;;
2542;SDS011;1116;51.502;7.414;2023-06-22T07:22:47;17.27;;;15.77;;
2542;SDS011;1116;51.502;7.414;2023-06-22T07:25:18;17.33;;;15.70;;
2542;SDS011;1116;51.502;7.414;2023-06-22T07:27:57;17.60;;;16.00;;
2542;SDS011;1116;51.502;7.414;2023-06-22T07:30:30;15.63;;;14.30;;
2542;SDS011;1116;51.502;7.414;2023-06-22T07:33:02;18.20;;;16.40;;
2542;SDS011;1116;51.502;7.414;2023-06-22T07:35:39;17.83;;;15.97;;
2542;SDS011;1116;51.502;7.414;2023-06-22T07:38:10;19.93;;;17.90;;
2542;SDS011;1116;51.502;7.414;2023-06-22T07:40:42;17.97;;;16.27;;
2542;SDS011;1116;51.502;7.414;2023-06-22T07:43:14;18.77;;;16.97;;
2542;SDS011;1116;51.502;7.414;2023-06-22T07:45:48;19.50;;;17.53;;
2542;SDS011;1116;51.502;7.414;2023-06-22T07:48:20;21.10;;;16.80;;
2542;SDS011;1116;51.502;7.414;2023-06-22T07:50:54;19.73;;;16.23;;
2542;SDS011;1116;51.502;7.414;2023-06-22T07:53:29;25.03;;;16.97;;
2542;SDS011;1116;51.502;7.414;2023-06-22T07:56:01;20.30;;;18.10;;
2542;SDS011;1116;51.502;7.414;2023-06-22T07:58:39;19.83;;;17.87;;
2542;SDS011;1116;51.502;7.414;2023-06-22T08:01:13;19.20;;;17.20;;
2542;SDS011;1116;51.502;7.414;2023-06-22T08:03:48;18.60;;;16.83;;
2542;SDS011;1116;51.502;7.414;2023-06-22T08:06:24;22.70;;;20.43;;
2542;SDS011;1116;51.502;7.414;2023-06-22T08:08:56;21.40;;;19.60;;
2542;SDS011;1116;51.502;7.414;2023-06-22T08:11:27;19.63;;;17.63;;
2542;SDS011;1116;51.502;7.414;2023-06-22T08:13:59;20.27;;;18.23;;
2542;SDS011;1116;51.502;7.414;2023-06-22T08:16:30;20.13;;;18.30;;
2542;SDS011;1116;51.502;7.414;2023-06-22T08:19:04;20.57;;;18.07;;
2542;SDS011;1116;51.502;7.414;2023-06-22T08:21:39;19.97;;;18.13;;
2542;SDS011;1116;51.502;7.414;2023-06-22T08:24:10;20.27;;;18.57;;
2542;SDS011;1116;51.502;7.414;2023-06-22T08:26:51;20.93;;;19.23;;
2542;SDS011;1116;51.502;7.414;2023-06-22T08:29:22;19.47;;;17.70;;
2542;SDS011;1116;51.502;7.414;2023-06-22T08:31:53;19.83;;;18.00;;
2542;SDS011;1116;51.502;7.414;2023-06-22T08:34:29;18.80;;;17.00;;
2542;SDS011;1116;51.502;7.414;2023-06-22T08:37:34;19.60;;;17.70;;
2542;SDS011;1116;51.502;7.414;2023-06-22T08:40:08;19.37;;;17.73;;
2542;SDS011;1116;51.502;7.414;2023-06-22T08:42:40;19.33;;;17.40;;
2542;SDS011;1116;51.502;7.414;2023-06-22T08:45:12;18.30;;;16.40;;
2542;SDS011;1116;51.502;7.414;2023-06-22T08:47:44;20.13;;;18.00;;
2542;SDS011;1116;51.502;7.414;2023-06-22T08:50:15;17.50;;;16.03;;
2542;SDS011;1116;51.502;7.414;2023-06-22T08:52:49;17.70;;;16.20;;
2542;SDS011;1116;51.502;7.414;2023-06-22T08:55:20;17.13;;;15.73;;
2542;SDS011;1116;51.502;7.414;2023-06-22T08:57:51;16.90;;;15.37;;
2542;SDS011;1116;51.502;7.414;2023-06-22T09:00:22;16.40;;;15.00;;
2542;SDS011;1116;51.502;7.414;2023-06-22T09:02:53;16.77;;;15.37;;
2542;SDS011;1116;51.502;7.414;2023-06-22T09:05:27;18.33;;;16.67;;
2542;SDS011;1116;51.502;7.414;2023-06-22T09:08:01;16.30;;;14.80;;
2542;SDS011;1116;51.502;7.414;2023-06-22T09:10:32;15.57;;;13.97;;
2542;SDS011;1116;51.502;7.414;2023-06-22T09:13:03;13.07;;;11.87;;
2542;SDS011;1116;51.502;7.414;2023-06-22T09:15:34;12.97;;;11.60;;
2542;SDS011;1116;51.502;7.414;2023-06-22T09:18:05;12.47;;;11.43;;
2542;SDS011;1116;51.502;7.414;2023-06-22T09:20:36;13.00;;;12.00;;
2542;SDS011;1116;51.502;7.414;2023-06-22T09:23:09;10.30;;;9.50;;
2542;SDS011;1116;51.502;7.414;2023-06-22T09:25:40;11.63;;;10.67;;
2542;SDS011;1116;51.502;7.414;2023-06-22T09:28:11;12.00;;;11.10;;
2542;SDS011;1116;51.502;7.414;2023-06-22T09:30:42;11.07;;;10.07;;
2542;SDS011;1116;51.502;7.414;2023-06-22T09:33:13;10.40;;;9.60;;
2542;SDS011;1116;51.502;7.414;2023-06-22T09:35:47;10.00;;;9.00;;
2542;SDS011;1116;51.502;7.414;2023-06-22T09:38:22;9.60;;;8.80;;
2542;SDS011;1116;51.502;7.414;2023-06-22T09:40:53;9.57;;;8.80;;
2542;SDS011;1116;51.502;7.414;2023-06-22T09:43:24;10.80;;;9.80;;
2542;SDS011;1116;51.502;7.414;2023-06-22T09:45:55;9.37;;;8.57;;
2542;SDS011;1116;51.502;7.414;2023-06-22T09:48:26;10.00;;;9.07;;
2542;SDS011;1116;51.502;7.414;2023-06-22T09:50:57;11.03;;;10.13;;
2542;SDS011;1116;51.502;7.414;2023-06-22T09:53:30;9.40;;;8.60;;
2542;SDS011;1116;51.502;7.414;2023-06-22T09:56:02;11.00;;;10.10;;
2542;SDS011;1116;51.502;7.414;2023-06-22T09:58:33;11.30;;;10.13;;
2542;SDS011;1116;51.502;7.414;2023-06-22T10:01:04;9.93;;;9.03;;
2542;SDS011;1116;51.502;7.414;2023-06-22T10:03:35;10.33;;;9.37;;
2542;SDS011;1116;51.502;7.414;2023-06-22T10:06:07;9.57;;;8.73;;
2542;SDS011;1116;51.502;7.414;2023-06-22T10:08:41;10.37;;;9.37;;
2542;SDS011;1116;51.502;7.414;2023-06-22T10:11:12;10.00;;;9.20;;
2542;SDS011;1116;51.502;7.414;2023-06-22T10:13:43;10.33;;;9.33;;
2542;SDS011;1116;51.502;7.414;2023-06-22T10:16:14;10.00;;;9.20;;
2542;SDS011;1116;51.502;7.414;2023-06-22T10:18:45;12.57;;;11.17;;
2542;SDS011;1116;51.502;7.414;2023-06-22T10:21:16;11.60;;;10.70;;
2542;SDS011;1116;51.502;7.414;2023-06-22T10:23:49;10.47;;;9.57;;
2542;SDS011;1116;51.502;7.414;2023-06-22T10:26:20;11.00;;;10.00;;
2542;SDS011;1116;51.502;7.414;2023-06-22T10:28:51;9.50;;;8.50;;
2542;SDS011;1116;51.502;7.414;2023-06-22T10:31:42;9.47;;;8.67;;
2542;SDS011;1116;51.502;7.414;2023-06-22T10:34:13;9.77;;;8.97;;
2542;SDS011;1116;51.502;7.414;2023-06-22T10:36:44;9.80;;;8.90;;
2542;SDS011;1116;51.502;7.414;2023-06-22T10:39:19;8.57;;;7.93;;
2542;SDS011;1116;51.502;7.414;2023-06-22T10:41:49;8.50;;;7.80;;
2542;SDS011;1116;51.502;7.414;2023-06-22T10:44:20;9.87;;;8.87;;
2542;SDS011;1116;51.502;7.414;2023-06-22T10:46:51;8.87;;;8.17;;
2542;SDS011;1116;51.502;7.414;2023-06-22T10:49:26;11.00;;;8.80;;
2542;SDS011;1116;51.502;7.414;2023-06-22T10:51:57;9.80;;;8.83;;
2542;SDS011;1116;51.502;7.414;2023-06-22T10:54:30;9.80;;;8.87;;
2542;SDS011;1116;51.502;7.414;2023-06-22T10:57:02;10.63;;;9.63;;
2542;SDS011;1116;51.502;7.414;2023-06-22T10:59:34;9.40;;;8.70;;
2542;SDS011;1116;51.502;7.414;2023-06-22T11:02:05;8.63;;;7.93;;
2542;SDS011;1116;51.502;7.414;2023-06-22T11:04:36;9.30;;;8.50;;
2542;SDS011;1116;51.502;7.414;2023-06-22T11:07:07;9.13;;;8.40;;
2542;SDS011;1116;51.502;7.414;2023-06-22T11:09:42;9.40;;;8.63;;
2542;SDS011;1116;51.502;7.414;2023-06-22T11:12:14;9.07;;;8.30;;
2542;SDS011;1116;51.502;7.414;2023-06-22T11:14:45;8.87;;;8.17;;
2542;SDS011;1116;51.502;7.414;2023-06-22T11:17:17;8.60;;;7.77;;
2542;SDS011;1116;51.502;7.414;2023-06-22T11:19:49;9.00;;;8.30;;
2542;SDS011;1116;51.502;7.414;2023-06-22T11:22:20;8.87;;;8.03;;
2542;SDS011;1116;51.502;7.414;2023-06-22T11:24:54;9.00;;;8.20;;
2542;SDS011;1116;51.502;7.414;2023-06-22T11:27:25;9.63;;;7.87;;
2542;SDS011;1116;51.502;7.414;2023-06-22T11:29:56;10.50;;;9.50;;
2542;SDS011;1116;51.502;7.414;2023-06-22T11:32:27;8.73;;;7.93;;
2542;SDS011;1116;51.502;7.414;2023-06-22T11:34:58;10.50;;;9.40;;
2542;SDS011;1116;51.502;7.414;2023-06-22T11:37:29;10.63;;;9.70;;
2542;SDS011;1116;51.502;7.414;2023-06-22T11:40:03;10.20;;;9.30;;
2542;SDS011;1116;51.502;7.414;2023-06-22T11:42:36;11.57;;;10.50;;
2542;SDS011;1116;51.502;7.414;2023-06-22T11:45:07;11.43;;;10.27;;
2542;SDS011;1116;51.502;7.414;2023-06-22T11:47:39;12.07;;;10.70;;
2542;SDS011;1116;51.502;7.414;2023-06-22T11:50:10;12.90;;;11.50;;
2542;SDS011;1116;51.502;7.414;2023-06-22T11:52:41;13.40;;;12.27;;
2542;SDS011;1116;51.502;7.414;2023-06-22T11:55:14;12.67;;;11.57;;
2542;SDS011;1116;51.502;7.414;2023-06-22T11:57:53;13.37;;;12.00;;
2542;SDS011;1116;51.502;7.414;2023-06-22T12:00:28;13.67;;;12.27;;
2542;SDS011;1116;51.502;7.414;2023-06-22T12:03:08;13.60;;;12.40;;
2542;SDS011;1116;51.502;7.414;2023-06-22T12:05:39;14.50;;;13.13;;
2542;SDS011;1116;51.502;7.414;2023-06-22T12:08:11;15.30;;;13.80;;
2542;SDS011;1116;51.502;7.414;2023-06-22T12:10:44;15.50;;;12.57;;
2542;SDS011;1116;51.502;7.414;2023-06-22T12:13:16;15.80;;;14.20;;
2542;SDS011;1116;51.502;7.414;2023-06-22T12:15:48;16.50;;;15.00;;
2542;SDS011;1116;51.502;7.414;2023-06-22T12:18:19;16.27;;;14.77;;
2542;SDS011;1116;51.502;7.414;2023-06-22T12:20:50;15.97;;;14.43;;
2542;SDS011;1116;51.502;7.414;2023-06-22T12:23:21;16.00;;;14.50;;
2542;SDS011;1116;51.502;7.414;2023-06-22T12:25:55;17.10;;;15.67;;
2542;SDS011;1116;51.502;7.414;2023-06-22T12:28:27;16.63;;;15.00;;
2542;SDS011;1116;51.502;7.414;2023-06-22T12:30:58;18.13;;;16.43;;
2542;SDS011;1116;51.502;7.414;2023-06-22T12:33:29;17.53;;;15.90;;
2542;SDS011;1116;51.502;7.414;2023-06-22T12:36:00;17.30;;;15.60;;
2542;SDS011;1116;51.502;7.414;2023-06-22T12:38:32;18.27;;;16.57;;
2542;SDS011;1116;51.502;7.414;2023-06-22T12:41:06;17.60;;;15.30;;
2542;SDS011;1116;51.502;7.414;2023-06-22T12:43:37;18.03;;;16.43;;
2542;SDS011;1116;51.502;7.414;2023-06-22T12:46:08;18.60;;;16.70;;
2542;SDS011;1116;51.502;7.414;2023-06-22T12:48:39;19.30;;;17.70;;
2542;SDS011;1116;51.502;7.414;2023-06-22T12:51:11;21.10;;;19.00;;
2542;SDS011;1116;51.502;7.414;2023-06-22T12:53:42;20.70;;;18.80;;
2542;SDS011;1116;51.502;7.414;2023-06-22T12:56:15;19.23;;;17.53;;
2542;SDS011;1116;51.502;7.414;2023-06-22T12:58:47;18.47;;;16.87;;
2542;SDS011;1116;51.502;7.414;2023-06-22T13:01:17;18.23;;;16.63;;
2542;SDS011;1116;51.502;7.414;2023-06-22T13:03:50;17.60;;;16.03;;
2542;SDS011;1116;51.502;7.414;2023-06-22T13:06:21;19.33;;;17.43;;
2542;SDS011;1116;51.502;7.414;2023-06-22T13:08:52;17.87;;;16.27;;
2542;SDS011;1116;51.502;7.414;2023-06-22T13:11:45;16.87;;;15.07;;
2542;SDS011;1116;51.502;7.414;2023-06-22T13:14:16;16.50;;;14.93;;
2542;SDS011;1116;51.502;7.414;2023-06-22T13:16:47;16.23;;;14.70;;
2542;SDS011;1116;51.502;7.414;2023-06-22T13:19:18;16.67;;;15.30;;
2542;SDS011;1116;51.502;7.414;2023-06-22T13:21:49;15.67;;;14.23;;
2542;SDS011;1116;51.502;7.414;2023-06-22T13:24:20;17.00;;;15.50;;
2542;SDS011;1116;51.502;7.414;2023-06-22T13:26:54;17.17;;;15.77;;
2542;SDS011;1116;51.502;7.414;2023-06-22T13:29:25;19.03;;;17.40;;
2542;SDS011;1116;51.502;7.414;2023-06-22T13:31:56;17.97;;;16.27;;
2542;SDS011;1116;51.502;7.414;2023-06-22T13:34:27;17.57;;;16.03;;
2542;SDS011;1116;51.502;7.414;2023-06-22T13:36:58;17.20;;;15.70;;
2542;SDS011;1116;51.502;7.414;2023-06-22T13:39:29;17.43;;;15.83;;
2542;SDS011;1116;51.502;7.414;2023-06-22T13:42:02;19.40;;;17.63;;
2542;SDS011;1116;51.502;7.414;2023-06-22T13:44:34;17.93;;;16.17;;
2542;SDS011;1116;51.502;7.414;2023-06-22T13:47:05;17.37;;;16.00;;
2542;SDS011;1116;51.502;7.414;2023-06-22T13:49:36;18.57;;;16.90;;
2542;SDS011;1116;51.502;7.414;2023-06-22T13:52:08;19.27;;;17.57;;
2542;SDS011;1116;51.502;7.414;2023-06-22T13:54:40;19.10;;;17.50;;
2542;SDS011;1116;51.502;7.414;2023-06-22T13:57:14;19.83;;;17.83;;
2542;SDS011;1116;51.502;7.414;2023-06-22T13:59:45;16.30;;;14.90;;
2542;SDS011;1116;51.502;7.414;2023-06-22T14:02:16;18.03;;;16.43;;
2542;SDS011;1116;51.502;7.414;2023-06-22T14:04:47;17.53;;;15.93;;
2542;SDS011;1116;51.502;7.414;2023-06-22T14:07:18;16.13;;;14.83;;
2542;SDS011;1116;51.502;7.414;2023-06-22T14:09:50;15.53;;;14.13;;
2542;SDS011;1116;51.502;7.414;2023-06-22T14:12:24;15.37;;;14.07;;
2542;SDS011;1116;51.502;7.414;2023-06-22T14:14:55;15.90;;;14.60;;
2542;SDS011;1116;51.502;7.414;2023-06-22T14:17:26;15.87;;;14.53;;
2542;SDS011;1116;51.502;7.414;2023-06-22T14:19:57;20.07;;;18.47;;
2542;SDS011;1116;51.502;7.414;2023-06-22T14:22:28;15.40;;;14.10;;
2542;SDS011;1116;51.502;7.414;2023-06-22T14:24:59;14.20;;;13.00;;
2542;SDS011;1116;51.502;7.414;2023-06-22T14:27:33;15.57;;;14.17;;
2542;SDS011;1116;51.502;7.414;2023-06-22T14:30:04;14.23;;;12.93;;
2542;SDS011;1116;51.502;7.414;2023-06-22T14:32:36;17.03;;;15.60;;
2542;SDS011;1116;51.502;7.414;2023-06-22T14:35:07;16.60;;;15.13;;
2542;SDS011;1116;51.502;7.414;2023-06-22T14:37:39;16.20;;;14.80;;
2542;SDS011;1116;51.502;7.414;2023-06-22T14:40:11;17.13;;;15.73;;
2542;SDS011;1116;51.502;7.414;2023-06-22T14:42:47;16.70;;;15.20;;
2542;SDS011;1116;51.502;7.414;2023-06-22T14:45:26;17.73;;;16.13;;
2542;SDS011;1116;51.502;7.414;2023-06-22T14:47:58;19.27;;;17.37;;
2542;SDS011;1116;51.502;7.414;2023-06-22T14:50:35;16.13;;;14.83;;
2542;SDS011;1116;51.502;7.414;2023-06-22T14:53:07;16.97;;;15.50;;
2542;SDS011;1116;51.502;7.414;2023-06-22T14:55:38;16.97;;;15.50;;
2542;SDS011;1116;51.502;7.414;2023-06-22T14:58:12;17.10;;;15.60;;
2542;SDS011;1116;51.502;7.414;2023-06-22T15:00:43;18.93;;;17.30;;
2542;SDS011;1116;51.502;7.414;2023-06-22T15:03:14;17.97;;;16.33;;
2542;SDS011;1116;51.502;7.414;2023-06-22T15:05:49;18.57;;;16.87;;
2542;SDS011;1116;51.502;7.414;2023-06-22T15:08:20;19.87;;;18.07;;
2542;SDS011;1116;51.502;7.414;2023-06-22T15:10:52;18.43;;;16.70;;
2542;SDS011;1116;51.502;7.414;2023-06-22T15:13:25;19.27;;;17.50;;
2542;SDS011;1116;51.502;7.414;2023-06-22T15:15:57;18.90;;;17.27;;
2542;SDS011;1116;51.502;7.414;2023-06-22T15:18:28;19.07;;;17.37;;
2542;SDS011;1116;51.502;7.414;2023-06-22T15:21:01;18.93;;;17.23;;
2542;SDS011;1116;51.502;7.414;2023-06-22T15:23:33;20.87;;;18.97;;
2542;SDS011;1116;51.502;7.414;2023-06-22T15:26:04;21.57;;;19.67;;